Sequatchie, Tennessee
Current Conditions -  °F | °C
As of 5:53 PM on Friday 24 Oct 2014 (Local Time) from KCHA Reporting Station
Scattered Clouds Scattered Clouds  
Wind Chill: 65°   Ceiling: Unl
Heat Index: 65°   Visibility: 10mi
Dew Point: 46°   Wind: 3mph
Humidity: 50%   Direction: 310°NW
Pressure: 30.03"   Gusts: NA
Location:  35.12°N, 85.59°W
Report Text: KCHA 242253Z 31003KT 10SM SCT200 18/08 A3003 RMK AO2 SLP165 T01830078
Loading
Personal Weather Stations






























Interactive Weather Map
Tropical Storm Tracking
New forecast layout! Learn more

10-Day Weather Forecast

Advertisements
Track Severe Weather on mobile